Time;durP1;ratioP1;P1;durP2;ratioP2;P2;SDS_P1;SDS_P2;PMS_P1;PMS_P2;Temp;Humidity;BMP_temperature;BMP_pressure;BME280_temperature;BME280_humidity;BME280_pressure;Samples;Min_cycle;Max_cycle;Signal;HPM_P1;HPM_P2
2022/12/28 00:00:18;;;;;;;6.68;2.40;;;;;;;;;;5953822;23;20385;-82
2022/12/28 00:02:43;;;;;;;4.22;1.90;;;;;;;;;;5978717;23;20356;-81
2022/12/28 00:05:09;;;;;;;3.72;1.90;;;;;;;;;;5954914;23;20403;-82
2022/12/28 00:07:34;;;;;;;4.78;2.00;;;;;;;;;;5954930;23;20026;-81
2022/12/28 00:09:59;;;;;;;4.13;1.65;;;;;;;;;;5954372;23;20022;-81
2022/12/28 00:12:25;;;;;;;5.53;1.95;;;;;;;;;;5977462;23;20721;-81
2022/12/28 00:14:50;;;;;;;5.22;1.90;;;;;;;;;;5955027;23;20083;-81
2022/12/28 00:17:16;;;;;;;5.65;2.20;;;;;;;;;;5954969;23;20110;-81
2022/12/28 00:19:41;;;;;;;4.53;1.77;;;;;;;;;;5955493;23;20015;-82
2022/12/28 00:22:06;;;;;;;4.72;1.90;;;;;;;;;;5953874;23;20321;-81
2022/12/28 00:24:33;;;;;;;4.57;2.10;;;;;;;;;;5978663;23;20023;-82
2022/12/28 00:26:59;;;;;;;5.70;2.40;;;;;;;;;;5976137;23;20016;-82
2022/12/28 00:29:24;;;;;;;6.93;2.08;;;;;;;;;;5954685;23;20527;-82
2022/12/28 00:31:49;;;;;;;4.00;1.50;;;;;;;;;;5976594;23;20564;-82
2022/12/28 00:34:15;;;;;;;5.20;1.85;;;;;;;;;;5954731;23;20156;-82
2022/12/28 00:36:40;;;;;;;5.63;2.00;;;;;;;;;;5954612;23;20048;-81
2022/12/28 00:39:06;;;;;;;4.80;1.80;;;;;;;;;;5978126;23;20047;-82
2022/12/28 00:41:31;;;;;;;3.80;1.70;;;;;;;;;;6000742;23;20118;-82
2022/12/28 00:43:56;;;;;;;6.45;1.80;;;;;;;;;;5954809;23;20460;-82
2022/12/28 00:46:22;;;;;;;5.50;2.05;;;;;;;;;;5981573;23;20476;-81
2022/12/28 00:48:47;;;;;;;3.40;1.70;;;;;;;;;;5983096;23;20023;-82
2022/12/28 00:51:15;;;;;;;7.97;2.05;;;;;;;;;;5981183;23;20351;-82
2022/12/28 00:53:41;;;;;;;5.63;1.80;;;;;;;;;;6006810;23;20015;-82
2022/12/28 00:56:20;;;;;;;5.80;1.80;;;;;;;;;;6005650;23;20019;-82
2022/12/28 00:58:46;;;;;;;5.35;1.73;;;;;;;;;;6005840;23;20016;-82
2022/12/28 01:01:19;;;;;;;3.70;1.80;;;;;;;;;;5981789;23;20026;-82
2022/12/28 01:03:45;;;;;;;6.38;2.13;;;;;;;;;;5982490;23;20014;-82
2022/12/28 01:06:12;;;;;;;3.28;1.65;;;;;;;;;;5981698;23;20015;-82
2022/12/28 01:08:38;;;;;;;6.90;1.90;;;;;;;;;;5982872;23;20380;-81
2022/12/28 01:11:12;;;;;;;4.75;1.80;;;;;;;;;;5981355;23;20042;-81
2022/12/28 01:13:37;;;;;;;5.22;1.90;;;;;;;;;;5982587;23;20075;-82
2022/12/28 01:16:23;;;;;;;5.05;2.10;;;;;;;;;;5981410;23;20435;-82
2022/12/28 01:18:55;;;;;;;4.47;2.20;;;;;;;;;;5981543;23;20023;-83
2022/12/28 01:21:22;;;;;;;4.45;1.80;;;;;;;;;;5981486;23;20759;-82
2022/12/28 01:23:48;;;;;;;5.10;2.10;;;;;;;;;;5982817;23;20086;-82
2022/12/28 01:26:14;;;;;;;4.05;1.77;;;;;;;;;;5981391;23;20019;-82
2022/12/28 01:28:40;;;;;;;4.82;1.50;;;;;;;;;;6006790;23;20399;-82
2022/12/28 01:31:11;;;;;;;7.15;2.20;;;;;;;;;;6005108;23;20015;-82
2022/12/28 01:33:36;;;;;;;3.90;1.60;;;;;;;;;;6004229;23;20388;-81
2022/12/28 01:36:25;;;;;;;4.60;1.65;;;;;;;;;;5981038;23;20026;-82
2022/12/28 01:38:52;;;;;;;4.88;2.13;;;;;;;;;;6005379;23;20494;-82
2022/12/28 01:41:19;;;;;;;4.10;1.55;;;;;;;;;;6005077;23;20030;-83
2022/12/28 01:44:09;;;;;;;4.93;1.88;;;;;;;;;;5982006;23;20023;-81
2022/12/28 01:46:39;;;;;;;6.70;1.60;;;;;;;;;;5976244;23;20031;-81
2022/12/28 01:49:10;;;;;;;4.53;1.83;;;;;;;;;;5954461;23;20015;-82
2022/12/28 01:52:07;;;;;;;4.65;2.10;;;;;;;;;;5999643;23;20020;-81
2022/12/28 01:54:44;;;;;;;4.38;1.63;;;;;;;;;;5916328;23;20404;-82
2022/12/28 01:57:11;;;;;;;3.63;1.58;;;;;;;;;;5965934;23;20015;-82
2022/12/28 01:59:40;;;;;;;5.40;1.90;;;;;;;;;;5999838;23;20015;-81
2022/12/28 02:02:06;;;;;;;4.47;1.73;;;;;;;;;;5953339;23;20024;-81
2022/12/28 02:04:32;;;;;;;4.60;1.73;;;;;;;;;;5953994;23;20024;-81
2022/12/28 02:06:57;;;;;;;5.80;1.90;;;;;;;;;;5953592;23;20486;-82
2022/12/28 02:09:30;;;;;;;5.88;1.73;;;;;;;;;;5976953;23;20840;-81
2022/12/28 02:11:56;;;;;;;6.28;1.75;;;;;;;;;;5952522;23;20457;-82
2022/12/28 02:14:22;;;;;;;4.18;2.00;;;;;;;;;;5977248;23;20019;-82
2022/12/28 02:16:47;;;;;;;3.03;1.63;;;;;;;;;;5952831;23;20086;-82
2022/12/28 02:19:17;;;;;;;3.92;1.77;;;;;;;;;;5954155;23;20011;-82
2022/12/28 02:22:07;;;;;;;3.72;1.70;;;;;;;;;;5953192;23;20019;-82
2022/12/28 02:25:07;;;;;;;5.32;2.00;;;;;;;;;;5977010;23;20020;-81
2022/12/28 02:27:56;;;;;;;3.47;1.92;;;;;;;;;;5975665;23;20028;-82
2022/12/28 02:30:21;;;;;;;5.10;2.50;;;;;;;;;;6000175;23;20043;-83
2022/12/28 02:33:08;;;;;;;6.18;2.40;;;;;;;;;;5979178;23;20048;-82
2022/12/28 02:35:53;;;;;;;5.57;2.33;;;;;;;;;;6000879;23;20471;-82
2022/12/28 02:38:44;;;;;;;4.15;1.95;;;;;;;;;;6002258;23;20019;-81
2022/12/28 02:41:12;;;;;;;4.32;2.00;;;;;;;;;;6002178;23;20015;-81
2022/12/28 02:43:38;;;;;;;4.93;2.17;;;;;;;;;;5979070;23;20465;-83
2022/12/28 02:52:15;;;;;;;4.20;1.83;;;;;;;;;;6031827;23;20766;-82
2022/12/28 02:57:39;;;;;;;6.07;2.30;;;;;;;;;;6031026;23;20038;-82
2022/12/28 03:00:08;;;;;;;4.38;2.28;;;;;;;;;;6031488;23;20058;-81
2022/12/28 03:02:42;;;;;;;5.78;2.17;;;;;;;;;;5983577;23;20023;-81
2022/12/28 03:08:13;;;;;;;9.95;2.63;;;;;;;;;;6006971;23;20082;-81
2022/12/28 03:08:21;;;;;;;5.65;2.33;;;;;;;;;;6010649;23;20015;-81
2022/12/28 03:11:10;;;;;;;4.32;2.08;;;;;;;;;;6007080;23;20016;-82
2022/12/28 03:13:44;;;;;;;4.80;2.08;;;;;;;;;;5983297;23;20110;-82
2022/12/28 03:33:24;;;;;;;5.95;2.25;;;;;;;;;;6010203;23;20030;-82
2022/12/28 03:35:56;;;;;;;5.03;1.95;;;;;;;;;;6005832;23;20011;-82
2022/12/28 03:38:30;;;;;;;5.50;2.05;;;;;;;;;;5983149;23;20030;-82
2022/12/28 03:41:07;;;;;;;4.85;2.17;;;;;;;;;;5981894;23;20022;-83
2022/12/28 03:43:42;;;;;;;6.32;2.10;;;;;;;;;;5982454;23;20823;-81
2022/12/28 03:46:23;;;;;;;5.50;1.88;;;;;;;;;;5982310;23;20038;-82
2022/12/28 03:48:49;;;;;;;3.97;1.95;;;;;;;;;;5982938;23;20029;-82
2022/12/28 03:51:16;;;;;;;3.28;1.60;;;;;;;;;;5982476;23;20015;-82
2022/12/28 03:53:44;;;;;;;4.32;2.30;;;;;;;;;;5984339;23;20039;-82
2022/12/28 03:56:12;;;;;;;;;;;;;;;;;;5983358;23;20015;-82
2022/12/28 03:58:37;;;;;;;3.63;1.58;;;;;;;;;;6030748;23;20405;-82
2022/12/28 04:01:03;;;;;;;4.40;1.77;;;;;;;;;;5982122;23;20038;-81
2022/12/28 04:03:29;;;;;;;5.00;1.70;;;;;;;;;;5982447;23;20071;-81
2022/12/28 04:05:55;;;;;;;4.95;1.67;;;;;;;;;;5981922;23;20019;-82
2022/12/28 04:08:20;;;;;;;4.10;1.85;;;;;;;;;;5983227;23;20019;-82
2022/12/28 04:10:45;;;;;;;5.07;1.80;;;;;;;;;;5982475;23;20055;-81
2022/12/28 04:13:11;;;;;;;6.22;1.70;;;;;;;;;;6006973;23;20019;-82
2022/12/28 04:15:36;;;;;;;4.80;1.85;;;;;;;;;;5981976;23;20562;-82
2022/12/28 04:18:01;;;;;;;4.65;1.67;;;;;;;;;;6006493;23;20141;-81
2022/12/28 04:20:27;;;;;;;4.40;1.40;;;;;;;;;;5981294;23;20015;-81
2022/12/28 04:22:52;;;;;;;6.53;1.73;;;;;;;;;;5985483;23;20094;-82
2022/12/28 04:25:18;;;;;;;4.63;1.83;;;;;;;;;;5980995;23;20027;-82
2022/12/28 04:27:43;;;;;;;2.95;1.48;;;;;;;;;;5982774;23;20042;-81
2022/12/28 04:30:09;;;;;;;6.68;2.00;;;;;;;;;;6030035;23;20019;-83
2022/12/28 04:32:34;;;;;;;5.88;1.77;;;;;;;;;;6005720;23;20418;-82
2022/12/28 04:35:00;;;;;;;7.75;1.83;;;;;;;;;;5982176;23;20019;-82
2022/12/28 04:37:25;;;;;;;3.63;1.77;;;;;;;;;;6005322;23;20082;-81
2022/12/28 04:39:51;;;;;;;5.72;1.80;;;;;;;;;;5982105;23;20019;-82
2022/12/28 04:42:16;;;;;;;4.43;1.70;;;;;;;;;;5981881;23;20093;-82
2022/12/28 04:44:41;;;;;;;4.05;1.58;;;;;;;;;;6006735;23;20023;-82
2022/12/28 04:47:07;;;;;;;3.05;1.40;;;;;;;;;;6028606;23;20082;-82
2022/12/28 04:49:32;;;;;;;6.15;2.10;;;;;;;;;;5982387;23;20079;-81
2022/12/28 04:51:57;;;;;;;5.95;2.10;;;;;;;;;;6005064;23;20023;-82
2022/12/28 04:54:23;;;;;;;4.72;1.60;;;;;;;;;;5982176;23;20083;-82
2022/12/28 04:56:48;;;;;;;6.75;1.88;;;;;;;;;;5981301;23;20017;-81
2022/12/28 04:59:14;;;;;;;3.67;1.70;;;;;;;;;;5982694;23;20055;-82
2022/12/28 05:01:39;;;;;;;3.63;1.65;;;;;;;;;;6004606;23;20471;-81
2022/12/28 05:04:04;;;;;;;3.42;1.52;;;;;;;;;;5982489;23;20050;-83
2022/12/28 05:06:30;;;;;;;4.10;1.50;;;;;;;;;;5980794;23;20023;-82
2022/12/28 05:08:56;;;;;;;5.38;1.70;;;;;;;;;;5982465;23;20015;-82
2022/12/28 05:11:25;;;;;;;3.47;1.40;;;;;;;;;;5981801;23;20016;-82
2022/12/28 05:13:51;;;;;;;5.65;1.55;;;;;;;;;;5982677;23;20351;-81
2022/12/28 05:16:18;;;;;;;4.35;1.48;;;;;;;;;;5981859;23;20030;-82
2022/12/28 05:18:43;;;;;;;4.32;1.63;;;;;;;;;;5982006;23;20019;-83
2022/12/28 05:21:20;;;;;;;2.53;1.20;;;;;;;;;;5982246;23;20075;-81
2022/12/28 05:23:46;;;;;;;3.00;1.42;;;;;;;;;;5981691;23;20090;-81
2022/12/28 05:26:14;;;;;;;3.53;1.52;;;;;;;;;;6029084;23;20518;-82
2022/12/28 05:28:40;;;;;;;3.47;1.38;;;;;;;;;;6006045;23;20053;-82
2022/12/28 05:31:08;;;;;;;4.07;1.45;;;;;;;;;;5981959;23;20019;-82
2022/12/28 05:33:35;;;;;;;3.83;1.30;;;;;;;;;;6005362;23;20007;-82
2022/12/28 05:36:09;;;;;;;2.88;1.20;;;;;;;;;;5981280;23;20019;-81
2022/12/28 05:38:35;;;;;;;3.92;1.40;;;;;;;;;;5981969;23;20019;-83
2022/12/28 05:41:16;;;;;;;3.63;1.42;;;;;;;;;;6005304;23;20482;-81
2022/12/28 05:43:42;;;;;;;4.18;1.63;;;;;;;;;;5982537;23;20046;-82
2022/12/28 05:46:22;;;;;;;3.85;1.23;;;;;;;;;;6004878;23;20027;-83
2022/12/28 05:48:48;;;;;;;5.03;1.25;;;;;;;;;;6005163;23;20011;-81
2022/12/28 05:51:18;;;;;;;2.95;1.20;;;;;;;;;;6004518;23;20109;-82
2022/12/28 05:53:44;;;;;;;3.75;1.15;;;;;;;;;;6006020;23;20064;-82
2022/12/28 05:56:12;;;;;;;3.58;1.42;;;;;;;;;;6005621;23;20019;-82
2022/12/28 05:58:38;;;;;;;3.10;1.10;;;;;;;;;;6010621;23;20614;-83
2022/12/28 06:01:05;;;;;;;2.80;1.20;;;;;;;;;;5981309;23;20027;-83
2022/12/28 06:03:30;;;;;;;4.00;1.20;;;;;;;;;;6005405;23;20027;-82
2022/12/28 06:05:56;;;;;;;3.25;1.10;;;;;;;;;;6030181;23;20370;-81
2022/12/28 06:08:21;;;;;;;2.70;1.05;;;;;;;;;;6007498;23;20015;-81
2022/12/28 06:10:46;;;;;;;4.43;1.23;;;;;;;;;;6006506;23;20344;-81
2022/12/28 06:13:12;;;;;;;3.85;1.30;;;;;;;;;;6008484;23;20015;-82
2022/12/28 06:15:37;;;;;;;2.65;0.93;;;;;;;;;;6007041;23;20765;-81
2022/12/28 06:18:03;;;;;;;3.55;1.30;;;;;;;;;;5983105;23;20046;-83
2022/12/28 06:20:28;;;;;;;4.22;1.35;;;;;;;;;;6005904;23;20451;-81
2022/12/28 06:22:53;;;;;;;4.07;1.10;;;;;;;;;;5992972;23;20086;-82
2022/12/28 06:25:19;;;;;;;3.28;1.27;;;;;;;;;;5983180;23;20019;-82
2022/12/28 06:27:44;;;;;;;2.80;1.17;;;;;;;;;;5984261;23;20016;-81
2022/12/28 06:30:10;;;;;;;2.83;1.20;;;;;;;;;;6006921;23;20682;-82
2022/12/28 06:32:36;;;;;;;4.93;1.23;;;;;;;;;;5982831;23;20050;-82
2022/12/28 06:35:01;;;;;;;3.97;1.45;;;;;;;;;;6006755;23;20458;-82
2022/12/28 06:37:26;;;;;;;4.45;1.20;;;;;;;;;;5983711;23;20406;-81
2022/12/28 06:39:52;;;;;;;3.10;1.20;;;;;;;;;;6025355;23;20011;-83
2022/12/28 06:42:17;;;;;;;3.20;1.00;;;;;;;;;;6006379;23;20098;-81
2022/12/28 06:44:43;;;;;;;2.40;1.17;;;;;;;;;;6002075;23;20459;-82
2022/12/28 06:47:08;;;;;;;2.85;1.23;;;;;;;;;;6006445;23;20019;-82
2022/12/28 06:49:33;;;;;;;3.55;1.20;;;;;;;;;;6007299;23;20011;-82
2022/12/28 06:51:59;;;;;;;3.97;1.65;;;;;;;;;;5982007;23;20352;-82
2022/12/28 06:54:24;;;;;;;6.13;1.40;;;;;;;;;;5983659;23;20015;-82
2022/12/28 06:56:49;;;;;;;4.18;1.30;;;;;;;;;;6006786;23;20478;-82
2022/12/28 06:59:15;;;;;;;3.22;1.30;;;;;;;;;;5983429;23;20478;-83
2022/12/28 07:01:43;;;;;;;4.85;1.60;;;;;;;;;;5983098;23;20391;-83
2022/12/28 07:04:09;;;;;;;5.68;1.50;;;;;;;;;;6008322;23;20051;-83
2022/12/28 07:06:37;;;;;;;4.75;1.70;;;;;;;;;;5981712;23;20456;-83
2022/12/28 07:09:05;;;;;;;4.40;1.30;;;;;;;;;;5983690;23;20022;-83
2022/12/28 07:11:31;;;;;;;4.00;1.55;;;;;;;;;;5980256;23;20019;-82
2022/12/28 07:13:57;;;;;;;5.05;1.40;;;;;;;;;;5983616;23;20388;-82
2022/12/28 07:16:23;;;;;;;5.53;1.77;;;;;;;;;;5981039;23;20475;-83
2022/12/28 07:18:49;;;;;;;4.05;1.20;;;;;;;;;;5984109;23;20027;-83
2022/12/28 07:21:27;;;;;;;4.78;1.65;;;;;;;;;;5990654;23;20693;-82
2022/12/28 07:23:53;;;;;;;5.70;2.03;;;;;;;;;;5983802;23;20023;-83
2022/12/28 07:26:26;;;;;;;4.53;1.83;;;;;;;;;;6005859;23;20034;-82
2022/12/28 07:28:54;;;;;;;3.67;1.83;;;;;;;;;;5984160;23;20447;-82
2022/12/28 07:31:20;;;;;;;;;;;;;;;;;;6006192;23;20553;-83
2022/12/28 07:33:46;;;;;;;7.07;1.88;;;;;;;;;;5970406;23;19914;-82
2022/12/28 07:36:14;;;;;;;3.42;1.63;;;;;;;;;;5982796;23;20019;-84
2022/12/28 07:38:39;;;;;;;4.00;1.40;;;;;;;;;;6006164;23;20669;-84
2022/12/28 07:41:14;;;;;;;4.30;2.03;;;;;;;;;;5982424;23;20015;-84
2022/12/28 07:43:39;;;;;;;5.35;1.75;;;;;;;;;;5983272;23;20584;-82
2022/12/28 07:46:10;;;;;;;4.07;1.90;;;;;;;;;;5977220;23;20107;-82
2022/12/28 07:48:37;;;;;;;5.93;2.03;;;;;;;;;;5954331;23;20028;-81
2022/12/28 07:51:16;;;;;;;4.72;2.08;;;;;;;;;;5977800;23;20069;-84
2022/12/28 07:53:43;;;;;;;4.80;1.80;;;;;;;;;;6001986;23;20456;-84
2022/12/28 07:56:09;;;;;;;3.78;1.55;;;;;;;;;;6000396;23;20022;-83
2022/12/28 07:58:35;;;;;;;5.65;2.05;;;;;;;;;;5954575;23;20449;-82
2022/12/28 08:01:11;;;;;;;5.07;1.83;;;;;;;;;;5977193;23;20012;-83
2022/12/28 08:03:37;;;;;;;5.15;1.73;;;;;;;;;;5953919;23;20443;-84
2022/12/28 08:06:22;;;;;;;6.72;1.80;;;;;;;;;;5953980;23;25129;-83
2022/12/28 08:08:49;;;;;;;4.85;1.80;;;;;;;;;;5978364;23;20019;-83
2022/12/28 08:11:17;;;;;;;3.78;1.52;;;;;;;;;;5952559;23;20102;-82
2022/12/28 08:13:44;;;;;;;4.15;1.70;;;;;;;;;;5955732;23;20031;-84
2022/12/28 08:16:17;;;;;;;4.35;1.90;;;;;;;;;;5954034;23;20431;-85
2022/12/28 08:18:42;;;;;;;3.72;1.75;;;;;;;;;;5953324;23;20043;-83
2022/12/28 08:21:11;;;;;;;6.80;1.92;;;;;;;;;;5998720;23;20015;-84
2022/12/28 08:23:37;;;;;;;4.00;1.88;;;;;;;;;;5954553;23;20107;-82
2022/12/28 08:26:20;;;;;;;5.18;2.05;;;;;;;;;;5954170;23;25560;-85
2022/12/28 08:28:46;;;;;;;5.95;2.00;;;;;;;;;;5977384;23;20015;-83
2022/12/28 08:31:24;;;;;;;4.18;1.65;;;;;;;;;;5954241;23;20016;-83
2022/12/28 08:33:49;;;;;;;3.33;1.58;;;;;;;;;;5976124;23;20019;-84
2022/12/28 08:36:15;;;;;;;5.53;1.50;;;;;;;;;;5953971;23;20020;-79
2022/12/28 08:38:42;;;;;;;3.45;1.73;;;;;;;;;;5955155;23;20022;-80
2022/12/28 08:41:11;;;;;;;3.88;1.50;;;;;;;;;;5953901;23;20015;-79
2022/12/28 08:43:36;;;;;;;6.43;1.85;;;;;;;;;;6024106;23;20019;-80
2022/12/28 08:46:11;;;;;;;4.38;1.90;;;;;;;;;;5977064;23;20019;-79
2022/12/28 08:48:37;;;;;;;4.53;1.50;;;;;;;;;;6005798;23;20013;-80
2022/12/28 08:51:05;;;;;;;3.88;1.40;;;;;;;;;;5981745;23;20648;-79
2022/12/28 08:53:31;;;;;;;4.32;1.58;;;;;;;;;;6028109;23;20019;-79
2022/12/28 08:56:06;;;;;;;3.63;1.42;;;;;;;;;;5981135;23;20067;-80
2022/12/28 08:58:31;;;;;;;3.95;1.55;;;;;;;;;;5982572;23;20019;-78
2022/12/28 09:01:04;;;;;;;3.72;1.48;;;;;;;;;;5981379;23;20015;-80
2022/12/28 09:03:50;;;;;;;3.22;1.45;;;;;;;;;;5983060;23;20031;-79
2022/12/28 09:06:18;;;;;;;2.75;1.30;;;;;;;;;;5998291;23;20027;-80
2022/12/28 09:08:44;;;;;;;4.18;1.40;;;;;;;;;;5976788;23;20024;-80
2022/12/28 09:11:11;;;;;;;3.60;1.42;;;;;;;;;;5975320;23;20020;-78
2022/12/28 09:13:37;;;;;;;3.92;1.60;;;;;;;;;;5975735;23;20024;-79
2022/12/28 09:16:08;;;;;;;2.95;1.42;;;;;;;;;;5975437;23;20088;-80
2022/12/28 09:18:35;;;;;;;3.70;1.65;;;;;;;;;;5976038;23;20034;-80
2022/12/28 09:21:09;;;;;;;4.65;1.83;;;;;;;;;;5951739;23;20047;-80
2022/12/28 09:23:35;;;;;;;3.38;1.50;;;;;;;;;;5975434;23;20016;-83
2022/12/28 09:26:13;;;;;;;5.13;1.70;;;;;;;;;;5974719;23;20026;-83
2022/12/28 09:28:47;;;;;;;3.00;1.45;;;;;;;;;;5975755;23;20030;-82
2022/12/28 09:31:12;;;;;;;2.50;1.15;;;;;;;;;;5951956;23;20015;-83
2022/12/28 09:36:22;;;;;;;6.70;2.10;;;;;;;;;;5978227;23;20092;-82
2022/12/28 09:38:48;;;;;;;3.40;1.20;;;;;;;;;;5952397;23;20024;-83
2022/12/28 09:41:30;;;;;;;4.15;1.20;;;;;;;;;;5975359;23;21058;-82
2022/12/28 09:44:23;;;;;;;4.38;1.67;;;;;;;;;;5998287;23;20026;-83
2022/12/28 09:46:51;;;;;;;4.72;1.83;;;;;;;;;;6004327;23;20514;-82
2022/12/28 09:49:17;;;;;;;4.93;1.52;;;;;;;;;;6005330;23;20347;-82
2022/12/28 09:51:59;;;;;;;2.95;1.42;;;;;;;;;;5968634;23;20046;-82
2022/12/28 09:54:28;;;;;;;6.20;1.65;;;;;;;;;;5981545;23;20015;-88
2022/12/28 09:56:54;;;;;;;3.45;1.50;;;;;;;;;;6008476;23;20015;-90
2022/12/28 09:59:23;;;;;;;5.05;2.15;;;;;;;;;;5989071;23;20067;-89
2022/12/28 10:01:55;;;;;;;4.45;1.30;;;;;;;;;;6010873;23;20022;-90
2022/12/28 10:04:20;;;;;;;3.35;1.55;;;;;;;;;;5985545;23;20402;-88
2022/12/28 10:06:46;;;;;;;4.95;1.55;;;;;;;;;;6010536;23;20078;-86
2022/12/28 10:09:21;;;;;;;5.85;1.48;;;;;;;;;;5989609;23;20446;-89
2022/12/28 10:11:47;;;;;;;4.03;1.60;;;;;;;;;;5986847;23;20016;-84
2022/12/28 10:14:26;;;;;;;4.50;1.48;;;;;;;;;;5989396;23;20098;-84
2022/12/28 10:16:53;;;;;;;4.88;1.50;;;;;;;;;;5986872;23;20019;-85
2022/12/28 10:19:23;;;;;;;6.72;1.65;;;;;;;;;;6010919;23;20019;-84
2022/12/28 10:22:03;;;;;;;3.38;1.55;;;;;;;;;;5986200;23;20022;-87
2022/12/28 10:24:29;;;;;;;4.70;1.70;;;;;;;;;;5987480;23;20035;-85
2022/12/28 10:26:57;;;;;;;3.08;1.30;;;;;;;;;;6009526;23;20019;-86
2022/12/28 10:29:23;;;;;;;3.13;1.50;;;;;;;;;;5989850;23;20103;-88
2022/12/28 10:32:00;;;;;;;5.22;1.45;;;;;;;;;;5986171;23;20011;-88
2022/12/28 10:34:27;;;;;;;4.32;1.80;;;;;;;;;;5987871;23;20055;-89
2022/12/28 10:36:53;;;;;;;3.58;1.65;;;;;;;;;;5974246;23;20075;-88
2022/12/28 10:39:28;;;;;;;3.40;1.70;;;;;;;;;;5990045;23;20015;-85
2022/12/28 10:41:55;;;;;;;3.03;1.40;;;;;;;;;;6034020;23;20019;-88
2022/12/28 10:44:25;;;;;;;4.78;1.55;;;;;;;;;;6012268;23;20023;-90
2022/12/28 10:46:59;;;;;;;6.63;1.90;;;;;;;;;;5984674;23;20015;-87
2022/12/28 10:49:33;;;;;;;4.20;1.83;;;;;;;;;;5988253;23;20107;-88
2022/12/28 10:52:03;;;;;;;3.35;1.65;;;;;;;;;;5987318;23;20067;-84
2022/12/28 10:54:32;;;;;;;4.68;1.77;;;;;;;;;;6007287;23;20369;-83
2022/12/28 10:56:58;;;;;;;3.28;1.75;;;;;;;;;;6006987;23;20122;-85
2022/12/28 10:59:26;;;;;;;5.35;2.00;;;;;;;;;;5984072;23;20031;-84
2022/12/28 11:02:00;;;;;;;3.90;1.50;;;;;;;;;;6007108;23;20015;-86
2022/12/28 11:04:26;;;;;;;2.85;1.45;;;;;;;;;;6009322;23;20015;-84
2022/12/28 11:06:54;;;;;;;3.85;1.90;;;;;;;;;;6006113;23;20510;-84
2022/12/28 11:09:28;;;;;;;4.65;1.80;;;;;;;;;;6031415;23;20412;-86
2022/12/28 11:11:55;;;;;;;3.65;1.55;;;;;;;;;;5982984;23;20028;-85
2022/12/28 11:14:33;;;;;;;4.45;1.60;;;;;;;;;;5983537;23;20467;-87
2022/12/28 11:17:29;;;;;;;3.28;1.40;;;;;;;;;;5982326;23;20011;-85
2022/12/28 11:20:02;;;;;;;3.15;1.48;;;;;;;;;;5979780;23;20027;-80
2022/12/28 11:22:29;;;;;;;3.63;1.48;;;;;;;;;;6007831;23;20098;-80
2022/12/28 11:24:55;;;;;;;4.22;1.45;;;;;;;;;;6008073;23;20337;-90
2022/12/28 11:27:23;;;;;;;3.10;1.40;;;;;;;;;;6020598;23;20455;-84
2022/12/28 11:29:54;;;;;;;3.90;1.70;;;;;;;;;;5980615;23;20015;-85
2022/12/28 11:32:25;;;;;;;2.55;1.10;;;;;;;;;;5990509;23;20016;-84
2022/12/28 11:34:52;;;;;;;3.75;1.45;;;;;;;;;;5984107;23;20022;-83
2022/12/28 11:37:18;;;;;;;2.30;1.10;;;;;;;;;;5982781;23;20455;-83
2022/12/28 11:39:48;;;;;;;4.22;1.63;;;;;;;;;;5984490;23;20022;-84
2022/12/28 11:42:31;;;;;;;3.22;1.40;;;;;;;;;;5984522;23;20127;-84
2022/12/28 11:45:23;;;;;;;3.92;1.52;;;;;;;;;;6031700;23;20045;-83
2022/12/28 11:47:48;;;;;;;3.45;1.20;;;;;;;;;;6006583;23;20043;-84
2022/12/28 11:50:38;;;;;;;3.50;1.60;;;;;;;;;;5982726;23;20478;-84
2022/12/28 11:53:19;;;;;;;4.07;1.33;;;;;;;;;;6008456;23;20039;-83
2022/12/28 11:55:57;;;;;;;3.85;1.65;;;;;;;;;;5982974;23;20025;-84
2022/12/28 11:58:29;;;;;;;4.53;1.45;;;;;;;;;;5983949;23;20347;-82
2022/12/28 12:00:55;;;;;;;3.22;1.25;;;;;;;;;;6006939;23;20079;-84
2022/12/28 12:03:56;;;;;;;2.90;1.40;;;;;;;;;;6006706;23;20023;-84
2022/12/28 12:06:53;;;;;;;2.35;1.00;;;;;;;;;;6006002;23;20027;-84
2022/12/28 12:09:24;;;;;;;2.65;1.02;;;;;;;;;;5975129;23;20023;-85
2022/12/28 12:11:50;;;;;;;2.92;1.30;;;;;;;;;;6005580;23;20019;-85
2022/12/28 12:14:35;;;;;;;2.67;0.90;;;;;;;;;;6007098;23;20019;-85
2022/12/28 12:17:03;;;;;;;4.53;1.42;;;;;;;;;;5981745;23;20067;-84
2022/12/28 12:19:36;;;;;;;4.32;1.30;;;;;;;;;;5983326;23;20015;-84
2022/12/28 12:22:21;;;;;;;2.42;1.08;;;;;;;;;;6005409;23;20011;-84
2022/12/28 12:25:00;;;;;;;3.50;1.45;;;;;;;;;;6006365;23;20399;-85
2022/12/28 12:27:31;;;;;;;3.80;1.20;;;;;;;;;;5982432;23;20021;-85
2022/12/28 12:30:01;;;;;;;2.67;1.45;;;;;;;;;;6005895;23;20050;-85
2022/12/28 12:32:41;;;;;;;2.38;1.13;;;;;;;;;;6003154;23;20027;-87
2022/12/28 12:35:10;;;;;;;3.35;1.20;;;;;;;;;;6005037;23;20398;-87
2022/12/28 12:37:57;;;;;;;2.72;1.27;;;;;;;;;;5982500;23;20443;-87
2022/12/28 12:40:44;;;;;;;3.13;1.20;;;;;;;;;;6005183;23;22699;-87
2022/12/28 12:43:13;;;;;;;;;;;;;;;;;;6006639;23;20400;-86
2022/12/28 12:45:44;;;;;;;2.50;0.90;;;;;;;;;;6028147;23;19921;-85
2022/12/28 12:48:32;;;;;;;2.92;1.30;;;;;;;;;;6005620;23;20023;-87
2022/12/28 12:51:25;;;;;;;3.58;1.38;;;;;;;;;;6004536;23;20012;-87
2022/12/28 12:54:16;;;;;;;2.53;1.13;;;;;;;;;;6006093;23;20094;-87
2022/12/28 12:56:50;;;;;;;2.47;1.20;;;;;;;;;;6005230;23;20023;-85
2022/12/28 12:59:31;;;;;;;3.92;1.30;;;;;;;;;;5982641;23;20023;-85
2022/12/28 13:02:23;;;;;;;3.00;1.40;;;;;;;;;;6029876;23;20015;-86
2022/12/28 13:04:48;;;;;;;2.90;1.20;;;;;;;;;;6005891;23;20019;-86
2022/12/28 13:07:25;;;;;;;3.30;1.40;;;;;;;;;;5982418;23;20781;-85
2022/12/28 13:09:53;;;;;;;2.42;1.00;;;;;;;;;;6005555;23;20034;-85
2022/12/28 13:12:19;;;;;;;4.05;1.40;;;;;;;;;;6005692;23;20659;-86
2022/12/28 13:14:46;;;;;;;2.95;1.20;;;;;;;;;;5983088;23;20016;-86
2022/12/28 13:17:17;;;;;;;3.08;1.60;;;;;;;;;;5982489;23;20023;-84
2022/12/28 13:19:49;;;;;;;2.95;1.33;;;;;;;;;;5983092;23;20082;-85
2022/12/28 13:22:34;;;;;;;3.97;1.20;;;;;;;;;;5979178;23;20019;-84
2022/12/28 13:25:00;;;;;;;2.90;1.40;;;;;;;;;;6004681;23;20036;-84
2022/12/28 13:27:43;;;;;;;2.63;1.10;;;;;;;;;;5979627;23;20025;-85
2022/12/28 13:30:16;;;;;;;2.60;1.23;;;;;;;;;;6003858;23;20380;-84
2022/12/28 13:32:51;;;;;;;3.30;1.33;;;;;;;;;;5980774;23;20464;-85
2022/12/28 13:35:20;;;;;;;3.45;1.40;;;;;;;;;;5981139;23;20439;-85
2022/12/28 13:38:01;;;;;;;4.65;1.20;;;;;;;;;;5982513;23;20024;-84
2022/12/28 13:40:29;;;;;;;3.10;1.30;;;;;;;;;;6004447;23;20111;-84
2022/12/28 13:43:29;;;;;;;4.82;1.20;;;;;;;;;;6005003;23;20511;-86
2022/12/28 13:46:00;;;;;;;2.80;1.13;;;;;;;;;;5979188;23;20355;-84
2022/12/28 13:48:29;;;;;;;4.38;1.30;;;;;;;;;;5967290;23;20047;-85
2022/12/28 13:50:55;;;;;;;3.78;1.30;;;;;;;;;;5979265;23;20494;-85
2022/12/28 13:53:24;;;;;;;3.55;1.40;;;;;;;;;;5990909;23;20023;-86
2022/12/28 13:55:53;;;;;;;3.95;1.23;;;;;;;;;;6027580;23;20058;-84
2022/12/28 13:58:23;;;;;;;3.47;1.33;;;;;;;;;;6003478;23;20026;-86
2022/12/28 14:00:50;;;;;;;3.78;1.20;;;;;;;;;;5978704;23;20015;-85
2022/12/28 14:03:20;;;;;;;3.92;1.33;;;;;;;;;;5973181;23;20077;-85
2022/12/28 14:05:53;;;;;;;2.83;1.10;;;;;;;;;;6020498;23;20177;-86
2022/12/28 14:08:20;;;;;;;3.10;1.40;;;;;;;;;;6004255;23;20024;-86
2022/12/28 14:10:51;;;;;;;3.20;1.40;;;;;;;;;;5979879;23;20019;-85
2022/12/28 14:13:17;;;;;;;4.38;1.60;;;;;;;;;;6005094;23;20023;-85
2022/12/28 14:15:43;;;;;;;3.38;1.40;;;;;;;;;;5967733;23;20012;-85
2022/12/28 14:18:13;;;;;;;2.83;1.40;;;;;;;;;;5982327;23;20051;-85
2022/12/28 14:20:50;;;;;;;3.05;1.50;;;;;;;;;;5980768;23;20020;-84
2022/12/28 14:23:26;;;;;;;2.90;1.35;;;;;;;;;;5980991;23;20023;-84
2022/12/28 14:25:53;;;;;;;4.18;1.88;;;;;;;;;;5981400;23;20026;-85
2022/12/28 14:28:34;;;;;;;4.45;1.70;;;;;;;;;;5984162;23;20056;-85
2022/12/28 14:31:00;;;;;;;3.53;1.30;;;;;;;;;;5983548;23;20098;-85
2022/12/28 14:33:27;;;;;;;4.13;1.38;;;;;;;;;;6007511;23;20074;-86
2022/12/28 14:35:55;;;;;;;3.88;1.75;;;;;;;;;;5982866;23;20083;-85
2022/12/28 14:38:22;;;;;;;;;;;;;;;;;;5983860;23;20015;-85
2022/12/28 14:40:55;;;;;;;4.38;1.60;;;;;;;;;;5982318;23;20346;-85
2022/12/28 14:43:25;;;;;;;3.60;1.65;;;;;;;;;;5983186;23;20027;-85
2022/12/28 14:45:51;;;;;;;3.70;1.38;;;;;;;;;;5982486;23;20102;-85
2022/12/28 14:48:37;;;;;;;4.35;1.70;;;;;;;;;;5983439;23;20023;-86
2022/12/28 14:51:23;;;;;;;2.45;1.38;;;;;;;;;;6005960;23;20098;-85
2022/12/28 14:54:10;;;;;;;2.83;1.30;;;;;;;;;;6006996;23;20365;-85
2022/12/28 14:56:36;;;;;;;2.53;1.00;;;;;;;;;;6005481;23;20022;-84
2022/12/28 14:59:02;;;;;;;4.63;1.65;;;;;;;;;;6007351;23;20019;-85
2022/12/28 15:01:44;;;;;;;3.47;1.52;;;;;;;;;;5980674;23;20019;-84
2022/12/28 15:04:54;;;;;;;;;;;;;;;;;;;;;
2022/12/28 15:07:19;;;;;;;3.95;1.60;;;;;;;;;;6038988;23;20355;-85
2022/12/28 15:09:44;;;;;;;3.42;1.48;;;;;;;;;;6064692;23;20011;-85
2022/12/28 15:12:14;;;;;;;3.28;1.63;;;;;;;;;;6034504;23;20510;-85
2022/12/28 15:14:41;;;;;;;3.78;1.63;;;;;;;;;;6038884;23;20394;-85
2022/12/28 15:17:06;;;;;;;5.18;1.52;;;;;;;;;;6039141;23;20379;-85
2022/12/28 15:19:32;;;;;;;3.70;1.30;;;;;;;;;;6040380;23;20021;-85
2022/12/28 15:21:57;;;;;;;4.07;1.60;;;;;;;;;;6038920;23;20533;-85
2022/12/28 15:24:23;;;;;;;3.85;1.40;;;;;;;;;;6063895;23;20034;-85
2022/12/28 15:26:48;;;;;;;3.50;1.60;;;;;;;;;;6039506;23;20050;-85
2022/12/28 15:29:14;;;;;;;3.03;1.48;;;;;;;;;;6040234;23;20715;-85
2022/12/28 15:31:39;;;;;;;3.28;1.48;;;;;;;;;;6062385;23;20755;-85
2022/12/28 15:34:05;;;;;;;4.03;1.65;;;;;;;;;;6038986;23;20046;-85